Buoy 46563

sailwx.info

Track history (hours):
 
Tides and Currents Weather Stations Pressure Air Temp Water Temp Dewpoint Dewpoint Depression Visibility Wind Speed Wind Dir Waves Ship Positions

Drifting buoy 46563

Last reported at 2014-Nov-28 10:00 UTC. Time now 2014-Nov-28 10:59 UTC.
Position N 26°24' W 123°56'.

Water temperature 22.0 ° C

Date/timePositionNaut miles runAvg speedWind from/ knotsBaromVisibWave heightAir tempDewpointWater temp
2014-Nov-28 10:00N 26°24' W 123°56'0 0.0 22.0
2014-Nov-28 09:00N 26°24' W 123°56'3 1.0 22.0
2014-Nov-28 06:00N 26°21' W 123°56'0 0.0 22.0
2014-Nov-28 05:00N 26°21' W 123°56'1 1.2 22.0
2014-Nov-28 04:00N 26°20' W 123°56'0 0.0 22.0
2014-Nov-28 03:00N 26°20' W 123°56'2 0.9 22.0
2014-Nov-28 01:00N 26°18' W 123°56'0 0.0 22.1
2014-Nov-28 00:00N 26°18' W 123°56'0 0.0 22.1
2014-Nov-27 23:00N 26°18' W 123°56'1 0.8 22.1
2014-Nov-27 22:00N 26°17' W 123°56'0 0.2 22.1
2014-Nov-27 21:00N 26°17' W 123°56'1 0.2 22.1
2014-Nov-27 17:00N 26°17' W 123°56'1 0.3 21.9
2014-Nov-27 14:00N 26°16' W 123°56'1 0.5 21.8
2014-Nov-27 13:00N 26°16' W 123°57'1 0.6 21.9
2014-Nov-27 12:00N 26°16' W 123°57'0 0.4 21.9
2014-Nov-27 11:00N 26°15' W 123°57'0 0.4 21.9
2014-Nov-27 10:00N 26°16' W 123°57'2 1.2 21.9
2014-Nov-27 08:00N 26°14' W 123°59'0 0.0 21.9
2014-Nov-27 07:00N 26°14' W 123°59'1 0.7 21.9
2014-Nov-27 05:00N 26°13' W 123°59'0 0.0 22.0
2014-Nov-27 04:00N 26°13' W 123°59'1 0.3 22.0
2014-Nov-27 02:00N 26°13' W 124°00'1 0.7 22.0
2014-Nov-27 01:00N 26°12' W 124°00'1 0.5 22.0
2014-Nov-27 00:00N 26°11' W 124°00'2 1.6 22.0
2014-Nov-26 23:00N 26°11' W 123°58'2 1.6 22.0
2014-Nov-26 22:00N 26°10' W 123°59'1 1.4 22.0
2014-Nov-26 21:00N 26°11' W 123°58'1 1.4 22.0
2014-Nov-26 20:00N 26°10' W 123°59'1 0.3 22.0
2014-Nov-26 18:00N 26°10' W 124°00'0 0.0 21.9
2014-Nov-26 14:00N 26°10' W 124°00'0 0.0 21.8
2014-Nov-26 13:00N 26°10' W 124°00'1 0.5 21.9
2014-Nov-26 12:00N 26°10' W 124°01'0 0.1 21.9
2014-Nov-26 10:00N 26°10' W 124°01'2 1.0 22.0
2014-Nov-26 08:00N 26°09' W 124°03'1 0.3 22.0
2014-Nov-26 05:00N 26°09' W 124°04'0 0.1 22.0
2014-Nov-26 04:00N 26°08' W 124°04'1 0.4 22.0
2014-Nov-26 02:00N 26°08' W 124°04'1 0.8 22.0
2014-Nov-26 01:00N 26°07' W 124°05'0 0.0 22.1
2014-Nov-26 00:00N 26°07' W 124°05'1 0.6 22.1
2014-Nov-25 23:00N 26°07' W 124°05'0 0.1 22.1
2014-Nov-25 22:00N 26°07' W 124°05'0 0.2 22.1
2014-Nov-25 20:00N 26°06' W 124°05'0 0.1 22.1
2014-Nov-25 18:00N 26°06' W 124°05'0 0.0 22.1
2014-Nov-25 16:00N 26°06' W 124°05'1 0.4 22.1
2014-Nov-25 14:00N 26°07' W 124°04'1 0.5 22.1
2014-Nov-25 13:00N 26°07' W 124°05'1 0.8 22.1
2014-Nov-25 12:00N 26°07' W 124°05'1 0.4 22.1
2014-Nov-25 10:00N 26°07' W 124°04'0 0.3 22.1
2014-Nov-25 09:00N 26°07' W 124°05'0 0.0 22.1
2014-Nov-25 08:00N 26°07' W 124°05'1 0.6 22.1
2014-Nov-25 06:00N 26°08' W 124°06'0 0.4 22.1
2014-Nov-25 05:00N 26°08' W 124°06'0 0.2 22.1
2014-Nov-25 04:00N 26°08' W 124°07'1 0.5 22.1
2014-Nov-25 03:00N 26°08' W 124°07'1 1.2 22.1
2014-Nov-25 02:00N 26°08' W 124°08'0 0.2 22.1
2014-Nov-25 01:00N 26°08' W 124°08'0 0.0 22.1
2014-Nov-25 00:00N 26°08' W 124°08'1 0.3 22.1
2014-Nov-24 22:00N 26°08' W 124°09'0 0.0 22.2
2014-Nov-24 20:00N 26°08' W 124°09'1 0.2 22.1
2014-Nov-24 17:00N 26°08' W 124°09'0 0.0 22.1
2014-Nov-24 16:00N 26°08' W 124°09'1 0.3 22.1
2014-Nov-24 14:00N 26°08' W 124°08'1 0.8 22.1
2014-Nov-24 13:00N 26°08' W 124°09'1 1.1 22.1
2014-Nov-24 12:00N 26°08' W 124°08'0 0.0 22.1
2014-Nov-24 11:00N 26°08' W 124°08'1 0.8 22.1
2014-Nov-24 10:00N 26°09' W 124°08'0 0.0 22.1
2014-Nov-24 09:00N 26°09' W 124°08'0 0.1 22.1
2014-Nov-24 08:00N 26°09' W 124°08'4 0.9 22.1
2014-Nov-24 04:00N 26°11' W 124°11'0 0.0 22.1
2014-Nov-24 03:00N 26°11' W 124°11'0 0.0 22.1
2014-Nov-24 02:00N 26°11' W 124°11'1 0.5 22.1
2014-Nov-24 01:00N 26°11' W 124°12'0 0.0 22.2
2014-Nov-24 00:00N 26°11' W 124°12'0 0.2 22.2
2014-Nov-23 23:00N 26°11' W 124°12'0 0.2 22.2
2014-Nov-23 22:00N 26°11' W 124°12'2 0.9 22.2
2014-Nov-23 20:00N 26°11' W 124°14'1 0.8 22.2
2014-Nov-23 19:00N 26°11' W 124°13'1 0.6 22.2
2014-Nov-23 18:00N 26°11' W 124°13'1 0.8 22.2
2014-Nov-23 17:00N 26°11' W 124°14'1 0.3 22.1
2014-Nov-23 15:00N 26°11' W 124°14'0 0.0 22.1
2014-Nov-23 14:00N 26°11' W 124°14'1 0.8 22.1
2014-Nov-23 13:00N 26°12' W 124°15'0 0.0 22.2
2014-Nov-23 12:00N 26°12' W 124°15'2 1.6 22.2
2014-Nov-23 11:00N 26°13' W 124°16'2 1.8 22.2
2014-Nov-23 10:00N 26°12' W 124°15'2 1.8 22.2
2014-Nov-23 09:00N 26°13' W 124°16'1 0.2 22.2
2014-Nov-23 06:00N 26°14' W 124°16'0 0.0 22.2
2014-Nov-23 05:00N 26°14' W 124°16'3 1.1 22.2
2014-Nov-23 02:00N 26°16' W 124°19'1 0.3 22.2
2014-Nov-23 00:00N 26°16' W 124°19'3 2.9 22.3
2014-Nov-22 23:00N 26°17' W 124°22'0 0.0 22.3
2014-Nov-22 22:00N 26°17' W 124°22'0 0.0 22.2
2014-Nov-22 21:00N 26°17' W 124°22'1 0.5 22.2
2014-Nov-22 20:00N 26°17' W 124°22'0 0.4 22.2
2014-Nov-22 19:00N 26°17' W 124°22'0 0.1 22.2
2014-Nov-22 17:00N 26°17' W 124°22'1 0.6 22.2
2014-Nov-22 15:00N 26°18' W 124°23'0 0.0 22.2
2014-Nov-22 14:00N 26°18' W 124°23'1 0.6 22.2
2014-Nov-22 13:00N 26°19' W 124°23'1 0.6 22.1
2014-Nov-22 12:00N 26°19' W 124°23'0 0.0 22.1
2014-Nov-22 11:00N 26°19' W 124°23'1 0.5 22.1
2014-Nov-22 09:00N 26°20' W 124°23'0 0.1 22.2
2014-Nov-22 07:00N 26°20' W 124°23'0 0.0 22.3
2014-Nov-22 06:00N 26°20' W 124°23'2 2.1 22.3
2014-Nov-22 05:00N 26°22' W 124°22'0 0.0 22.3
2014-Nov-22 03:00N 26°22' W 124°22'0 0.3 22.3
2014-Nov-22 02:00N 26°22' W 124°22'1 1.3 22.3
2014-Nov-22 01:00N 26°23' W 124°21'0 0.0 22.4
2014-Nov-22 00:00N 26°23' W 124°21'1 0.5 22.4
2014-Nov-21 23:00N 26°23' W 124°22'1 0.3 22.4
2014-Nov-21 21:00N 26°23' W 124°22'0 0.0 22.4
2014-Nov-21 20:00N 26°23' W 124°22'1 0.6 22.4
2014-Nov-21 18:00N 26°23' W 124°20'0 0.0 22.4
2014-Nov-21 17:00N 26°23' W 124°20'1 0.2 22.4
2014-Nov-21 13:00N 26°22' W 124°20'0 0.0 22.3
2014-Nov-21 11:00N 26°22' W 124°20'1 0.8 22.4
2014-Nov-21 10:00N 26°22' W 124°19'2 1.7 22.4
2014-Nov-21 09:00N 26°21' W 124°17'0 0.0 22.4
2014-Nov-21 05:00N 26°21' W 124°17'0 0.0 22.4
2014-Nov-21 04:00N 26°21' W 124°17'0 0.0 22.4
2014-Nov-21 03:00N 26°21' W 124°17'0 0.0 22.5
2014-Nov-21 01:00N 26°21' W 124°17'1 0.6 22.5
2014-Nov-21 00:00N 26°20' W 124°17'1 0.4 22.5
2014-Nov-20 22:00N 26°20' W 124°18'0 0.1 22.5
2014-Nov-20 21:00N 26°20' W 124°18'2 0.5 22.6
2014-Nov-20 18:00N 26°19' W 124°19'0 0.3 22.4
2014-Nov-20 17:00N 26°19' W 124°19'1 0.5 22.4
2014-Nov-20 14:00N 26°17' W 124°19'1 0.5 22.4
2014-Nov-20 13:00N 26°17' W 124°20'1 1.3 22.4
2014-Nov-20 12:00N 26°16' W 124°20'0 0.0 22.4
2014-Nov-20 11:00N 26°16' W 124°20'2 2.1 22.4
2014-Nov-20 10:00N 26°14' W 124°22'0 0.0 22.4
2014-Nov-20 09:00N 26°14' W 124°22'0 0.0 22.4
2014-Nov-20 06:00N 26°14' W 124°22'0 0.0 22.4
2014-Nov-20 05:00N 26°14' W 124°22'1 0.5 22.4
2014-Nov-20 04:00N 26°14' W 124°22'1 1.0 22.4
2014-Nov-20 03:00N 26°14' W 124°23'0 0.5 22.4
2014-Nov-20 02:00N 26°13' W 124°23'0 0.0 22.4
2014-Nov-20 01:00N 26°13' W 124°23'1 0.5 22.4
2014-Nov-20 00:00N 26°13' W 124°23'0 0.0 22.4
2014-Nov-19 23:00N 26°13' W 124°23'1 1.3 22.5
2014-Nov-19 22:00N 26°13' W 124°25'1 0.8 22.5
2014-Nov-19 21:00N 26°12' W 124°25'1 0.2 22.5
2014-Nov-19 18:00N 26°12' W 124°26'0 0.0 22.3
2014-Nov-19 17:00N 26°12' W 124°26'0 0.0 22.3
2014-Nov-19 16:00N 26°12' W 124°26'1 0.6 22.3
2014-Nov-19 14:00N 26°11' W 124°27'0 0.0 22.2
2014-Nov-19 13:00N 26°11' W 124°27'1 1.2 22.2
2014-Nov-19 12:00N 26°11' W 124°28'1 0.8 22.2
2014-Nov-19 11:00N 26°10' W 124°29'0 0.1 22.2
2014-Nov-19 10:00N 26°10' W 124°29'0 0.0 22.2
2014-Nov-19 09:00N 26°10' W 124°29'1 0.4 22.2
2014-Nov-19 06:00N 26°10' W 124°30'1 0.8 22.2
2014-Nov-19 05:00N 26°09' W 124°31'0 0.0 22.2
2014-Nov-19 04:00N 26°09' W 124°31'1 1.1 22.3
2014-Nov-19 03:00N 26°09' W 124°32'1 0.5 22.3
2014-Nov-19 02:00N 26°09' W 124°32'1 1.2 22.4
2014-Nov-19 01:00N 26°10' W 124°34'1 0.6 22.6
2014-Nov-19 00:00N 26°09' W 124°34'1 0.6 22.7
2014-Nov-18 23:00N 26°10' W 124°34'2 1.2 22.8
2014-Nov-18 21:00N 26°08' W 124°36'1 0.2 22.6
2014-Nov-18 18:00N 26°08' W 124°37'1 0.7 22.3
2014-Nov-18 17:00N 26°08' W 124°37'2 0.5 22.1
2014-Nov-18 13:00N 26°08' W 124°40'0 0.3 22.1
2014-Nov-18 12:00N 26°08' W 124°40'1 1.3 22.1
2014-Nov-18 11:00N 26°08' W 124°41'0 0.4 22.1
2014-Nov-18 10:00N 26°08' W 124°41'   22.1
Track history (hours):
 
Tides and Currents Weather Stations Pressure Air Temp Water Temp Dewpoint Dewpoint Depression Visibility Wind Speed Wind Dir Waves Ship Positions

Drifting buoy 46563

Last reported at 2014-Nov-28 10:00 UTC. Time now 2014-Nov-28 10:59 UTC.
Position N 26°24' W 123°56'.

Water temperature 22.0 ° C

Date/timePositionNaut miles runAvg speedWind from/ knotsBaromVisibWave heightAir tempDewpointWater temp
2014-Nov-28 10:00N 26°24' W 123°56'0 0.0 22.0
2014-Nov-28 09:00N 26°24' W 123°56'3 1.0 22.0
2014-Nov-28 06:00N 26°21' W 123°56'0 0.0 22.0
2014-Nov-28 05:00N 26°21' W 123°56'1 1.2 22.0
2014-Nov-28 04:00N 26°20' W 123°56'0 0.0 22.0
2014-Nov-28 03:00N 26°20' W 123°56'2 0.9 22.0
2014-Nov-28 01:00N 26°18' W 123°56'0 0.0 22.1
2014-Nov-28 00:00N 26°18' W 123°56'0 0.0 22.1
2014-Nov-27 23:00N 26°18' W 123°56'1 0.8 22.1
2014-Nov-27 22:00N 26°17' W 123°56'0 0.2 22.1
2014-Nov-27 21:00N 26°17' W 123°56'1 0.2 22.1
2014-Nov-27 17:00N 26°17' W 123°56'1 0.3 21.9
2014-Nov-27 14:00N 26°16' W 123°56'1 0.5 21.8
2014-Nov-27 13:00N 26°16' W 123°57'1 0.6 21.9
2014-Nov-27 12:00N 26°16' W 123°57'0 0.4 21.9
2014-Nov-27 11:00N 26°15' W 123°57'0 0.4 21.9
2014-Nov-27 10:00N 26°16' W 123°57'2 1.2 21.9
2014-Nov-27 08:00N 26°14' W 123°59'0 0.0 21.9
2014-Nov-27 07:00N 26°14' W 123°59'1 0.7 21.9
2014-Nov-27 05:00N 26°13' W 123°59'0 0.0 22.0
2014-Nov-27 04:00N 26°13' W 123°59'1 0.3 22.0
2014-Nov-27 02:00N 26°13' W 124°00'1 0.7 22.0
2014-Nov-27 01:00N 26°12' W 124°00'1 0.5 22.0
2014-Nov-27 00:00N 26°11' W 124°00'2 1.6 22.0
2014-Nov-26 23:00N 26°11' W 123°58'2 1.6 22.0
2014-Nov-26 22:00N 26°10' W 123°59'1 1.4 22.0
2014-Nov-26 21:00N 26°11' W 123°58'1 1.4 22.0
2014-Nov-26 20:00N 26°10' W 123°59'1 0.3 22.0
2014-Nov-26 18:00N 26°10' W 124°00'0 0.0 21.9
2014-Nov-26 14:00N 26°10' W 124°00'0 0.0 21.8
2014-Nov-26 13:00N 26°10' W 124°00'1 0.5 21.9
2014-Nov-26 12:00N 26°10' W 124°01'0 0.1 21.9
2014-Nov-26 10:00N 26°10' W 124°01'2 1.0 22.0
2014-Nov-26 08:00N 26°09' W 124°03'1 0.3 22.0
2014-Nov-26 05:00N 26°09' W 124°04'0 0.1 22.0
2014-Nov-26 04:00N 26°08' W 124°04'1 0.4 22.0
2014-Nov-26 02:00N 26°08' W 124°04'1 0.8 22.0
2014-Nov-26 01:00N 26°07' W 124°05'0 0.0 22.1
2014-Nov-26 00:00N 26°07' W 124°05'1 0.6 22.1
2014-Nov-25 23:00N 26°07' W 124°05'0 0.1 22.1
2014-Nov-25 22:00N 26°07' W 124°05'0 0.2 22.1
2014-Nov-25 20:00N 26°06' W 124°05'0 0.1 22.1
2014-Nov-25 18:00N 26°06' W 124°05'0 0.0 22.1
2014-Nov-25 16:00N 26°06' W 124°05'1 0.4 22.1
2014-Nov-25 14:00N 26°07' W 124°04'1 0.5 22.1
2014-Nov-25 13:00N 26°07' W 124°05'1 0.8 22.1
2014-Nov-25 12:00N 26°07' W 124°05'1 0.4 22.1
2014-Nov-25 10:00N 26°07' W 124°04'0 0.3 22.1
2014-Nov-25 09:00N 26°07' W 124°05'0 0.0 22.1
2014-Nov-25 08:00N 26°07' W 124°05'1 0.6 22.1
2014-Nov-25 06:00N 26°08' W 124°06'0 0.4 22.1
2014-Nov-25 05:00N 26°08' W 124°06'0 0.2 22.1
2014-Nov-25 04:00N 26°08' W 124°07'1 0.5 22.1
2014-Nov-25 03:00N 26°08' W 124°07'1 1.2 22.1
2014-Nov-25 02:00N 26°08' W 124°08'0 0.2 22.1
2014-Nov-25 01:00N 26°08' W 124°08'0 0.0 22.1
2014-Nov-25 00:00N 26°08' W 124°08'1 0.3 22.1
2014-Nov-24 22:00N 26°08' W 124°09'0 0.0 22.2
2014-Nov-24 20:00N 26°08' W 124°09'1 0.2 22.1
2014-Nov-24 17:00N 26°08' W 124°09'0 0.0 22.1
2014-Nov-24 16:00N 26°08' W 124°09'1 0.3 22.1
2014-Nov-24 14:00N 26°08' W 124°08'1 0.8 22.1
2014-Nov-24 13:00N 26°08' W 124°09'1 1.1 22.1
2014-Nov-24 12:00N 26°08' W 124°08'0 0.0 22.1
2014-Nov-24 11:00N 26°08' W 124°08'1 0.8 22.1
2014-Nov-24 10:00N 26°09' W 124°08'0 0.0 22.1
2014-Nov-24 09:00N 26°09' W 124°08'0 0.1 22.1
2014-Nov-24 08:00N 26°09' W 124°08'4 0.9 22.1
2014-Nov-24 04:00N 26°11' W 124°11'0 0.0 22.1
2014-Nov-24 03:00N 26°11' W 124°11'0 0.0 22.1
2014-Nov-24 02:00N 26°11' W 124°11'1 0.5 22.1
2014-Nov-24 01:00N 26°11' W 124°12'0 0.0 22.2
2014-Nov-24 00:00N 26°11' W 124°12'0 0.2 22.2
2014-Nov-23 23:00N 26°11' W 124°12'0 0.2 22.2
2014-Nov-23 22:00N 26°11' W 124°12'2 0.9 22.2
2014-Nov-23 20:00N 26°11' W 124°14'1 0.8 22.2
2014-Nov-23 19:00N 26°11' W 124°13'1 0.6 22.2
2014-Nov-23 18:00N 26°11' W 124°13'1 0.8 22.2
2014-Nov-23 17:00N 26°11' W 124°14'1 0.3 22.1
2014-Nov-23 15:00N 26°11' W 124°14'0 0.0 22.1
2014-Nov-23 14:00N 26°11' W 124°14'1 0.8 22.1
2014-Nov-23 13:00N 26°12' W 124°15'0 0.0 22.2
2014-Nov-23 12:00N 26°12' W 124°15'2 1.6 22.2
2014-Nov-23 11:00N 26°13' W 124°16'2 1.8 22.2
2014-Nov-23 10:00N 26°12' W 124°15'2 1.8 22.2
2014-Nov-23 09:00N 26°13' W 124°16'1 0.2 22.2
2014-Nov-23 06:00N 26°14' W 124°16'0 0.0 22.2
2014-Nov-23 05:00N 26°14' W 124°16'3 1.1 22.2
2014-Nov-23 02:00N 26°16' W 124°19'1 0.3 22.2
2014-Nov-23 00:00N 26°16' W 124°19'3 2.9 22.3
2014-Nov-22 23:00N 26°17' W 124°22'0 0.0 22.3
2014-Nov-22 22:00N 26°17' W 124°22'0 0.0 22.2
2014-Nov-22 21:00N 26°17' W 124°22'1 0.5 22.2
2014-Nov-22 20:00N 26°17' W 124°22'0 0.4 22.2
2014-Nov-22 19:00N 26°17' W 124°22'0 0.1 22.2
2014-Nov-22 17:00N 26°17' W 124°22'1 0.6 22.2
2014-Nov-22 15:00N 26°18' W 124°23'0 0.0 22.2
2014-Nov-22 14:00N 26°18' W 124°23'1 0.6 22.2
2014-Nov-22 13:00N 26°19' W 124°23'1 0.6 22.1
2014-Nov-22 12:00N 26°19' W 124°23'0 0.0 22.1
2014-Nov-22 11:00N 26°19' W 124°23'1 0.5 22.1
2014-Nov-22 09:00N 26°20' W 124°23'0 0.1 22.2
2014-Nov-22 07:00N 26°20' W 124°23'0 0.0 22.3
2014-Nov-22 06:00N 26°20' W 124°23'2 2.1 22.3
2014-Nov-22 05:00N 26°22' W 124°22'0 0.0 22.3
2014-Nov-22 03:00N 26°22' W 124°22'0 0.3 22.3
2014-Nov-22 02:00N 26°22' W 124°22'1 1.3 22.3
2014-Nov-22 01:00N 26°23' W 124°21'0 0.0 22.4
2014-Nov-22 00:00N 26°23' W 124°21'1 0.5 22.4
2014-Nov-21 23:00N 26°23' W 124°22'1 0.3 22.4
2014-Nov-21 21:00N 26°23' W 124°22'0 0.0 22.4
2014-Nov-21 20:00N 26°23' W 124°22'1 0.6 22.4
2014-Nov-21 18:00N 26°23' W 124°20'0 0.0 22.4
2014-Nov-21 17:00N 26°23' W 124°20'1 0.2 22.4
2014-Nov-21 13:00N 26°22' W 124°20'0 0.0 22.3
2014-Nov-21 11:00N 26°22' W 124°20'1 0.8 22.4
2014-Nov-21 10:00N 26°22' W 124°19'2 1.7 22.4
2014-Nov-21 09:00N 26°21' W 124°17'0 0.0 22.4
2014-Nov-21 05:00N 26°21' W 124°17'0 0.0 22.4
2014-Nov-21 04:00N 26°21' W 124°17'0 0.0 22.4
2014-Nov-21 03:00N 26°21' W 124°17'0 0.0 22.5
2014-Nov-21 01:00N 26°21' W 124°17'1 0.6 22.5
2014-Nov-21 00:00N 26°20' W 124°17'1 0.4 22.5
2014-Nov-20 22:00N 26°20' W 124°18'0 0.1 22.5
2014-Nov-20 21:00N 26°20' W 124°18'2 0.5 22.6
2014-Nov-20 18:00N 26°19' W 124°19'0 0.3 22.4
2014-Nov-20 17:00N 26°19' W 124°19'1 0.5 22.4
2014-Nov-20 14:00N 26°17' W 124°19'1 0.5 22.4
2014-Nov-20 13:00N 26°17' W 124°20'1 1.3 22.4
2014-Nov-20 12:00N 26°16' W 124°20'0 0.0 22.4
2014-Nov-20 11:00N 26°16' W 124°20'2 2.1 22.4
2014-Nov-20 10:00N 26°14' W 124°22'0 0.0 22.4
2014-Nov-20 09:00N 26°14' W 124°22'0 0.0 22.4
2014-Nov-20 06:00N 26°14' W 124°22'0 0.0 22.4
2014-Nov-20 05:00N 26°14' W 124°22'1 0.5 22.4
2014-Nov-20 04:00N 26°14' W 124°22'1 1.0 22.4
2014-Nov-20 03:00N 26°14' W 124°23'0 0.5 22.4
2014-Nov-20 02:00N 26°13' W 124°23'0 0.0 22.4
2014-Nov-20 01:00N 26°13' W 124°23'1 0.5 22.4
2014-Nov-20 00:00N 26°13' W 124°23'0 0.0 22.4
2014-Nov-19 23:00N 26°13' W 124°23'1 1.3 22.5
2014-Nov-19 22:00N 26°13' W 124°25'1 0.8 22.5
2014-Nov-19 21:00N 26°12' W 124°25'1 0.2 22.5
2014-Nov-19 18:00N 26°12' W 124°26'0 0.0 22.3
2014-Nov-19 17:00N 26°12' W 124°26'0 0.0 22.3
2014-Nov-19 16:00N 26°12' W 124°26'1 0.6 22.3
2014-Nov-19 14:00N 26°11' W 124°27'0 0.0 22.2
2014-Nov-19 13:00N 26°11' W 124°27'1 1.2 22.2
2014-Nov-19 12:00N 26°11' W 124°28'1 0.8 22.2
2014-Nov-19 11:00N 26°10' W 124°29'0 0.1 22.2
2014-Nov-19 10:00N 26°10' W 124°29'0 0.0 22.2
2014-Nov-19 09:00N 26°10' W 124°29'1 0.4 22.2
2014-Nov-19 06:00N 26°10' W 124°30'1 0.8 22.2
2014-Nov-19 05:00N 26°09' W 124°31'0 0.0 22.2
2014-Nov-19 04:00N 26°09' W 124°31'1 1.1 22.3
2014-Nov-19 03:00N 26°09' W 124°32'1 0.5 22.3
2014-Nov-19 02:00N 26°09' W 124°32'1 1.2 22.4
2014-Nov-19 01:00N 26°10' W 124°34'1 0.6 22.6
2014-Nov-19 00:00N 26°09' W 124°34'1 0.6 22.7
2014-Nov-18 23:00N 26°10' W 124°34'2 1.2 22.8
2014-Nov-18 21:00N 26°08' W 124°36'1 0.2 22.6
2014-Nov-18 18:00N 26°08' W 124°37'1 0.7 22.3
2014-Nov-18 17:00N 26°08' W 124°37'2 0.5 22.1
2014-Nov-18 13:00N 26°08' W 124°40'0 0.3 22.1
2014-Nov-18 12:00N 26°08' W 124°40'1 1.3 22.1
2014-Nov-18 11:00N 26°08' W 124°41'0 0.4 22.1
2014-Nov-18 10:00N 26°08' W 124°41'   22.1

Dump ship's entire track history